Time;durP1;ratioP1;P1;durP2;ratioP2;P2;SDS_P1;SDS_P2;PMS_P1;PMS_P2;Temp;Humidity;BMP_temperature;BMP_pressure;BME280_temperature;BME280_humidity;BME280_pressure;Samples;Min_cycle;Max_cycle;Signal;HPM_P1;HPM_P2
2024/01/31 00:00:06;;;;;;;9.60;7.63;;;;;;;8.74;77.75;97119.16;5013568;28;20190;-77
2024/01/31 00:02:31;;;;;;;13.07;7.67;;;;;;;8.76;77.85;97124.28;5027734;28;20558;-76
2024/01/31 00:04:56;;;;;;;7.97;7.17;;;;;;;8.76;77.60;97121.69;4991697;28;20271;-76
2024/01/31 00:07:22;;;;;;;8.33;6.73;;;;;;;8.76;77.85;97125.09;5030039;28;20186;-76
2024/01/31 00:09:47;;;;;;;8.53;6.50;;;;;;;8.79;77.46;97122.31;5009161;28;20187;-76
2024/01/31 00:12:12;;;;;;;6.70;6.00;;;;;;;8.81;77.46;97117.03;5029412;28;20723;-76
2024/01/31 00:14:38;;;;;;;7.90;5.90;;;;;;;8.86;77.12;97116.75;5030533;28;20201;-76
2024/01/31 00:17:03;;;;;;;7.37;5.97;;;;;;;8.86;76.78;97116.75;5029405;28;20190;-76
2024/01/31 00:19:28;;;;;;;6.33;5.53;;;;;;;8.86;76.85;97111.56;5002136;28;20673;-76
2024/01/31 00:21:54;;;;;;;6.03;5.43;;;;;;;8.86;76.96;97119.34;5000328;28;20211;-76
2024/01/31 00:24:19;;;;;;;7.67;5.80;;;;;;;8.88;76.75;97123.47;5004709;28;20193;-76
2024/01/31 00:26:45;;;;;;;9.43;6.63;;;;;;;8.87;76.68;97114.06;5005586;28;20183;-76
2024/01/31 00:29:10;;;;;;;6.63;5.90;;;;;;;8.87;76.82;97114.06;5030410;28;20690;-77
2024/01/31 00:31:35;;;;;;;9.17;6.17;;;;;;;8.91;76.52;97114.66;5029621;28;20592;-76
2024/01/31 00:34:01;;;;;;;9.73;6.30;;;;;;;8.89;76.87;97112.19;5012390;28;20537;-76
2024/01/31 00:36:27;;;;;;;6.67;6.03;;;;;;;8.89;77.08;97111.34;4996265;28;20240;-76
2024/01/31 00:38:52;;;;;;;8.03;5.90;;;;;;;8.90;76.85;97113.00;5029201;28;20653;-76
2024/01/31 00:41:17;;;;;;;6.20;4.97;;;;;;;8.90;76.70;97113.00;5003612;28;20205;-76
2024/01/31 00:43:42;;;;;;;7.70;6.00;;;;;;;8.90;76.85;97120.78;5012717;28;20194;-76
2024/01/31 00:46:08;;;;;;;7.07;5.83;;;;;;;8.90;77.04;97123.38;4998872;28;20300;-76
2024/01/31 00:48:33;;;;;;;9.03;5.63;;;;;;;8.88;77.03;97123.47;4996486;28;20677;-76
2024/01/31 00:50:59;;;;;;;8.27;6.23;;;;;;;8.78;77.71;97115.47;5005404;28;20735;-76
2024/01/31 00:53:24;;;;;;;9.43;6.43;;;;;;;8.87;77.12;97115.81;5030417;28;20190;-77
2024/01/31 00:55:50;;;;;;;8.00;5.77;;;;;;;8.86;77.21;97116.75;5012364;28;20241;-76
2024/01/31 00:58:15;;;;;;;7.10;6.40;;;;;;;8.88;77.41;97120.91;5029040;28;20221;-76
2024/01/31 01:00:40;;;;;;;8.50;5.80;;;;;;;8.86;77.51;97117.56;4993254;28;20692;-76
2024/01/31 01:03:06;;;;;;;8.53;5.97;;;;;;;8.89;76.89;97126.91;5004498;28;20210;-76
2024/01/31 01:05:31;;;;;;;7.50;5.83;;;;;;;8.93;77.04;97125.78;5028857;28;20186;-76
2024/01/31 01:07:56;;;;;;;8.67;5.87;;;;;;;8.94;76.99;97125.69;4998479;28;20600;-76
2024/01/31 01:10:22;;;;;;;8.83;6.17;;;;;;;8.94;76.93;97130.03;5029547;28;20973;-76
2024/01/31 01:12:47;;;;;;;6.97;5.33;;;;;;;8.92;76.93;97134.47;5028706;28;20190;-76
2024/01/31 01:15:12;;;;;;;8.13;5.60;;;;;;;8.92;76.86;97129.28;5029632;28;20251;-76
2024/01/31 01:17:38;;;;;;;8.23;5.67;;;;;;;8.85;76.99;97131.47;5033964;28;20713;-76
2024/01/31 01:20:05;;;;;;;9.43;6.10;;;;;;;8.94;76.56;97135.22;5004972;28;20191;-76
2024/01/31 01:22:31;;;;;;;10.07;6.20;;;;;;;8.89;76.60;97135.50;5033934;28;20297;-76
2024/01/31 01:24:56;;;;;;;9.63;6.23;;;;;;;9.01;76.15;97132.13;5032512;28;20287;-76
2024/01/31 01:27:21;;;;;;;7.70;6.03;;;;;;;9.00;75.61;97130.44;4999708;28;20197;-76
2024/01/31 01:29:47;;;;;;;10.57;6.60;;;;;;;9.00;75.80;97130.44;5033227;28;20198;-76
2024/01/31 01:32:12;;;;;;;10.27;5.97;;;;;;;9.06;75.86;97126.66;5032496;28;20229;-76
2024/01/31 01:34:40;;;;;;;8.67;5.50;;;;;;;9.07;75.72;97125.72;5032410;28;20289;-76
2024/01/31 01:37:06;;;;;;;8.13;5.90;;;;;;;8.98;75.99;97121.13;5013885;28;20265;-76
2024/01/31 01:39:31;;;;;;;10.20;6.50;;;;;;;9.02;76.20;97122.59;5005968;28;20236;-76
2024/01/31 01:41:57;;;;;;;7.90;6.17;;;;;;;8.91;76.61;97115.50;5032652;28;20639;-76
2024/01/31 01:44:22;;;;;;;9.67;6.57;;;;;;;9.11;75.69;97127.19;5010246;28;20186;-76
2024/01/31 01:46:47;;;;;;;9.47;6.50;;;;;;;9.01;76.45;97116.59;5015684;28;20236;-76
2024/01/31 01:49:13;;;;;;;8.37;6.40;;;;;;;9.04;76.16;97125.91;5033362;28;20194;-76
2024/01/31 01:51:39;;;;;;;9.77;6.90;;;;;;;8.94;76.71;97128.28;5032803;28;20206;-76
2024/01/31 01:54:05;;;;;;;8.67;6.33;;;;;;;9.16;75.49;97119.09;5009292;28;20190;-76
2024/01/31 01:56:30;;;;;;;8.20;6.37;;;;;;;9.17;75.43;97113.81;4998906;28;20206;-76
2024/01/31 01:58:56;;;;;;;10.67;6.50;;;;;;;9.11;75.74;97111.63;5008289;28;20652;-76
2024/01/31 02:01:23;;;;;;;8.50;6.90;;;;;;;9.17;75.77;97107.78;5032657;28;20229;-76
2024/01/31 02:03:54;;;;;;;10.53;7.70;;;;;;;9.12;76.12;97112.47;5033072;28;20194;-76
2024/01/31 02:06:19;;;;;;;10.17;7.03;;;;;;;9.15;75.95;97105.31;5032129;28;20186;-76
2024/01/31 02:08:44;;;;;;;8.50;7.33;;;;;;;9.11;75.80;97105.63;5031830;28;20213;-76
2024/01/31 02:11:10;;;;;;;9.70;6.60;;;;;;;8.99;76.40;97099.47;5004652;28;20211;-76
2024/01/31 02:13:35;;;;;;;8.27;6.10;;;;;;;9.18;75.63;97102.50;5015335;28;20660;-76
2024/01/31 02:16:00;;;;;;;7.93;6.50;;;;;;;9.03;76.21;97106.94;5015033;28;20217;-76
2024/01/31 02:18:27;;;;;;;8.40;6.60;;;;;;;9.14;75.51;97103.66;5033130;28;20187;-76
2024/01/31 02:20:53;;;;;;;8.33;6.33;;;;;;;9.19;74.79;97098.16;5031001;28;20550;-76
2024/01/31 02:23:18;;;;;;;7.83;5.60;;;;;;;9.08;74.86;97099.69;5003241;28;20265;-76
2024/01/31 02:25:47;;;;;;;8.63;6.20;;;;;;;8.89;75.24;97094.06;5030904;28;20523;-76
2024/01/31 02:28:12;;;;;;;9.50;6.57;;;;;;;9.10;74.62;97094.44;5014224;28;20190;-76
2024/01/31 02:30:38;;;;;;;8.50;5.87;;;;;;;9.19;73.91;97080.88;5002531;28;20218;-76
2024/01/31 02:33:03;;;;;;;11.53;5.93;;;;;;;9.12;74.11;97087.38;4998580;28;20186;-76
2024/01/31 02:35:31;;;;;;;7.63;5.37;;;;;;;9.17;73.63;97080.13;5032530;28;20198;-76
2024/01/31 02:37:57;;;;;;;7.27;5.90;;;;;;;9.23;73.34;97078.88;5014661;28;20186;-76
2024/01/31 02:40:23;;;;;;;6.70;5.63;;;;;;;9.24;73.49;97078.78;5014096;28;20221;-76
2024/01/31 02:42:48;;;;;;;8.87;5.87;;;;;;;9.23;73.43;97084.06;5014689;28;20285;-76
2024/01/31 02:45:14;;;;;;;9.87;6.20;;;;;;;9.20;73.90;97082.53;5020914;28;20253;-76
2024/01/31 02:47:39;;;;;;;9.77;6.03;;;;;;;9.23;73.39;97076.28;5032381;28;20652;-76
2024/01/31 02:50:05;;;;;;;9.37;6.07;;;;;;;9.24;73.68;97083.13;5030508;28;20186;-76
2024/01/31 02:52:30;;;;;;;9.33;5.97;;;;;;;9.26;73.29;97078.69;5031011;28;20656;-76
2024/01/31 02:54:55;;;;;;;8.70;5.37;;;;;;;9.23;73.58;97077.13;5022808;28;20317;-76
2024/01/31 02:57:23;;;;;;;9.40;6.10;;;;;;;9.22;74.05;97078.06;5014541;28;20648;-76
2024/01/31 02:59:48;;;;;;;11.30;6.10;;;;;;;9.16;74.32;97078.47;5013811;28;20183;-76
2024/01/31 03:02:17;;;;;;;9.20;5.97;;;;;;;9.22;74.25;97078.06;5006875;28;20210;-76
2024/01/31 03:04:43;;;;;;;7.43;5.87;;;;;;;9.20;74.31;97077.34;5030691;28;20714;-76
2024/01/31 03:07:08;;;;;;;7.33;5.73;;;;;;;9.22;74.32;97083.25;5017757;28;20262;-76
2024/01/31 03:09:34;;;;;;;8.20;5.70;;;;;;;9.22;74.13;97078.06;5013800;28;20277;-76
2024/01/31 03:11:59;;;;;;;11.67;6.03;;;;;;;9.20;73.92;97082.53;5031293;28;20206;-76
2024/01/31 03:14:24;;;;;;;9.57;6.50;;;;;;;9.12;74.55;97082.19;5004463;28;20193;-76
2024/01/31 03:16:49;;;;;;;6.83;5.63;;;;;;;9.21;74.29;97084.19;5030175;28;20210;-76
2024/01/31 03:19:15;;;;;;;9.23;5.40;;;;;;;9.15;74.68;97075.97;5031686;28;20189;-76
2024/01/31 03:21:41;;;;;;;6.97;6.27;;;;;;;9.21;74.62;97080.75;5029969;28;20205;-76
2024/01/31 03:24:06;;;;;;;7.73;5.67;;;;;;;9.25;73.98;97079.59;5013901;28;20187;-76
2024/01/31 03:26:31;;;;;;;8.90;6.27;;;;;;;9.24;74.28;97076.19;5013834;28;20187;-76
2024/01/31 03:28:58;;;;;;;9.70;5.20;;;;;;;9.22;74.49;97072.06;5007391;28;20665;-76
2024/01/31 03:31:23;;;;;;;8.17;5.50;;;;;;;9.21;74.21;97073.81;5030793;28;20205;-76
2024/01/31 03:33:49;;;;;;;8.93;6.37;;;;;;;9.19;74.64;97075.69;5013658;28;20561;-76
2024/01/31 03:36:14;;;;;;;7.10;5.93;;;;;;;9.20;74.35;97077.34;5030075;28;20278;-76
2024/01/31 03:38:39;;;;;;;7.80;5.90;;;;;;;9.20;75.18;97074.75;5029464;28;20186;-76
2024/01/31 03:41:08;;;;;;;7.00;6.10;;;;;;;9.15;75.28;97066.44;5002827;28;20752;-76
2024/01/31 03:43:33;;;;;;;8.97;6.40;;;;;;;9.20;75.42;97077.34;5030318;28;20210;-76
2024/01/31 03:46:00;;;;;;;9.23;6.20;;;;;;;9.17;75.56;97072.34;5013335;28;20299;-76
2024/01/31 03:48:27;;;;;;;9.57;6.33;;;;;;;9.19;75.46;97072.22;5031350;28;20183;-76
2024/01/31 03:50:52;;;;;;;7.23;6.20;;;;;;;9.20;75.29;97081.69;5029368;28;20194;-76
2024/01/31 03:53:18;;;;;;;8.40;6.00;;;;;;;9.16;75.69;97073.28;5004368;28;20585;-76
2024/01/31 03:55:44;;;;;;;8.17;6.30;;;;;;;9.16;75.85;97073.28;5030876;28;20197;-76
2024/01/31 03:58:09;;;;;;;7.43;5.70;;;;;;;9.18;75.79;97076.59;5029798;28;20178;-77
2024/01/31 04:00:34;;;;;;;7.60;6.03;;;;;;;9.17;76.01;97080.13;5008702;28;20672;-76
2024/01/31 04:03:00;;;;;;;9.23;6.03;;;;;;;9.17;75.94;97074.94;5029670;28;20183;-76
2024/01/31 04:05:25;;;;;;;7.93;6.20;;;;;;;9.14;75.99;97080.31;5013161;28;20194;-76
2024/01/31 04:07:50;;;;;;;9.13;6.30;;;;;;;9.14;76.30;97079.50;4998268;28;20540;-76
2024/01/31 04:10:16;;;;;;;7.10;5.57;;;;;;;9.14;76.32;97082.09;5028902;28;20241;-76
2024/01/31 04:12:41;;;;;;;10.70;6.30;;;;;;;9.11;76.78;97085.72;5012988;28;20188;-76
2024/01/31 04:15:07;;;;;;;9.17;6.70;;;;;;;9.13;76.27;97086.44;5013044;28;20206;-76
2024/01/31 04:17:33;;;;;;;11.20;7.63;;;;;;;9.13;76.50;97085.63;5003308;28;20182;-76
2024/01/31 04:19:58;;;;;;;11.77;7.83;;;;;;;9.13;76.49;97093.41;5030123;28;20191;-76
2024/01/31 04:22:23;;;;;;;9.90;7.83;;;;;;;9.12;76.81;97092.56;5012011;28;20605;-76
2024/01/31 04:24:49;;;;;;;9.60;7.10;;;;;;;9.11;76.76;97097.84;5030471;28;20660;-76
2024/01/31 04:27:14;;;;;;;7.57;5.83;;;;;;;9.10;76.94;97086.66;5012619;28;20210;-76
2024/01/31 04:29:40;;;;;;;11.53;6.57;;;;;;;9.09;76.77;97098.75;5012876;28;20194;-76
2024/01/31 04:32:08;;;;;;;9.77;6.90;;;;;;;9.08;77.10;97093.69;5012181;28;20247;-76
2024/01/31 04:34:38;;;;;;;8.90;6.43;;;;;;;9.06;76.87;97103.31;5029365;28;20179;-76
2024/01/31 04:37:03;;;;;;;8.90;6.70;;;;;;;9.05;76.99;97101.66;5029141;28;20648;-76
2024/01/31 04:39:28;;;;;;;9.33;6.20;;;;;;;9.03;77.07;97111.31;5030353;28;20257;-76
2024/01/31 04:41:54;;;;;;;7.27;6.43;;;;;;;9.04;77.26;97115.56;5011764;28;20216;-76
2024/01/31 04:44:19;;;;;;;6.80;6.07;;;;;;;9.06;77.04;97108.50;5001841;28;20190;-76
2024/01/31 04:46:45;;;;;;;8.83;7.00;;;;;;;9.04;77.19;97105.19;5012603;28;20197;-77
2024/01/31 04:49:10;;;;;;;13.13;8.27;;;;;;;9.03;77.23;97106.94;5019128;28;20182;-76
2024/01/31 04:51:40;;;;;;;12.17;8.00;;;;;;;9.03;77.06;97109.53;5025385;28;20687;-76
2024/01/31 04:54:05;;;;;;;10.03;7.40;;;;;;;8.98;77.28;97105.59;5000309;28;20680;-76
2024/01/31 04:56:30;;;;;;;9.27;7.40;;;;;;;8.98;77.11;97106.41;5016319;28;20199;-77
2024/01/31 04:58:56;;;;;;;8.40;6.20;;;;;;;8.99;77.32;97109.84;5021509;28;20194;-77
2024/01/31 05:01:21;;;;;;;10.67;7.03;;;;;;;8.86;77.76;97112.41;5027136;28;20227;-76
2024/01/31 05:03:46;;;;;;;11.60;7.13;;;;;;;8.96;77.52;97110.03;5033095;28;20186;-76
2024/01/31 05:06:12;;;;;;;11.87;7.37;;;;;;;9.00;77.11;97114.91;5016257;28;20247;-76
2024/01/31 05:08:37;;;;;;;14.10;8.03;;;;;;;8.95;77.35;97119.56;5032118;28;20603;-76
2024/01/31 05:11:02;;;;;;;12.97;6.90;;;;;;;9.00;77.06;97125.28;5009279;28;20202;-76
2024/01/31 05:13:28;;;;;;;8.80;6.37;;;;;;;8.99;77.49;97122.78;5016231;28;20202;-76
2024/01/31 05:15:53;;;;;;;8.10;7.17;;;;;;;8.96;77.71;97123.00;5032653;28;20222;-76
2024/01/31 05:18:18;;;;;;;11.27;6.87;;;;;;;8.89;78.20;97134.69;5034048;28;20213;-76
2024/01/31 05:20:44;;;;;;;10.13;7.43;;;;;;;8.90;78.00;97136.34;5032177;28;20206;-76
2024/01/31 05:23:09;;;;;;;8.37;6.27;;;;;;;8.85;78.31;97141.81;5032432;28;20178;-76
2024/01/31 05:25:34;;;;;;;9.27;6.87;;;;;;;8.83;78.42;97137.66;5032462;28;20182;-76
2024/01/31 05:28:00;;;;;;;10.17;6.63;;;;;;;8.76;79.15;97139.81;5010199;28;20262;-76
2024/01/31 05:30:25;;;;;;;8.03;6.13;;;;;;;8.74;79.40;97139.06;5033291;28;20716;-76
2024/01/31 05:32:51;;;;;;;8.03;6.43;;;;;;;8.67;79.67;97138.66;5032396;28;20182;-76
2024/01/31 05:35:16;;;;;;;9.20;6.53;;;;;;;8.59;80.33;97135.72;5033335;28;20764;-76
2024/01/31 05:37:41;;;;;;;8.50;6.63;;;;;;;8.60;80.32;97128.75;5015770;28;20564;-76
2024/01/31 05:40:08;;;;;;;10.20;7.03;;;;;;;8.62;80.05;97132.91;5008038;28;20542;-76
2024/01/31 05:42:33;;;;;;;8.77;6.17;;;;;;;8.52;80.83;97126.66;5033649;28;20548;-76
2024/01/31 05:44:58;;;;;;;8.43;6.80;;;;;;;8.56;80.76;97130.69;5032111;28;20191;-76
2024/01/31 05:47:24;;;;;;;11.33;7.30;;;;;;;8.52;81.39;97132.66;5015897;28;20186;-76
2024/01/31 05:49:49;;;;;;;8.30;7.07;;;;;;;8.49;81.79;97130.28;5007746;28;20316;-76
2024/01/31 05:52:15;;;;;;;9.67;7.50;;;;;;;8.50;81.67;97129.34;5015400;28;20696;-76
2024/01/31 05:54:40;;;;;;;9.57;7.30;;;;;;;8.49;81.79;97129.44;5009189;28;20186;-76
2024/01/31 05:57:06;;;;;;;10.47;7.47;;;;;;;8.26;83.31;97122.25;5002436;28;20211;-76
2024/01/31 05:59:31;;;;;;;12.73;7.40;;;;;;;8.39;82.84;97123.16;5032209;28;20623;-76
2024/01/31 06:01:57;;;;;;;11.53;7.90;;;;;;;8.44;82.46;97124.53;5013950;28;20229;-76
2024/01/31 06:04:22;;;;;;;16.67;7.60;;;;;;;8.43;82.85;97119.47;5031762;28;20252;-76
2024/01/31 06:06:47;;;;;;;11.67;7.70;;;;;;;8.40;82.98;97130.84;5014252;28;20236;-76
2024/01/31 06:09:13;;;;;;;11.63;8.37;;;;;;;8.49;82.61;97124.28;5033053;28;20191;-76
2024/01/31 06:11:39;;;;;;;11.10;8.27;;;;;;;8.50;82.58;97124.16;4998330;28;20249;-76
2024/01/31 06:14:04;;;;;;;11.53;8.37;;;;;;;8.20;84.70;97132.03;5031727;28;20175;-76
2024/01/31 06:16:30;;;;;;;9.90;7.77;;;;;;;8.00;85.95;97134.19;5015161;28;20211;-76
2024/01/31 06:18:55;;;;;;;10.20;8.27;;;;;;;7.83;87.58;97150.72;5014980;28;20186;-76
2024/01/31 06:21:21;;;;;;;13.77;9.30;;;;;;;8.01;87.26;97147.03;5015036;28;20759;-76
2024/01/31 06:23:47;;;;;;;15.67;9.87;;;;;;;8.17;86.37;97137.41;5014696;28;20191;-77
2024/01/31 06:26:13;;;;;;;14.63;9.90;;;;;;;8.15;86.27;97138.44;5014844;28;20266;-77
2024/01/31 06:28:38;;;;;;;18.40;10.30;;;;;;;8.17;86.01;97145.16;5012307;28;20263;-76
2024/01/31 06:31:14;;;;;;;12.07;9.93;;;;;;;8.16;86.47;97147.84;5014025;28;20297;-76
2024/01/31 06:33:42;;;;;;;13.97;10.37;;;;;;;8.12;86.96;97143.78;5020006;28;20181;-76
2024/01/31 06:36:09;;;;;;;19.77;11.37;;;;;;;8.16;86.73;97147.84;5007936;28;20203;-76
2024/01/31 06:38:34;;;;;;;18.27;12.80;;;;;;;8.09;87.61;97143.97;5014453;28;20232;-76
2024/01/31 06:40:59;;;;;;;16.07;12.90;;;;;;;8.12;86.99;97142.03;5012479;28;20222;-76
2024/01/31 06:43:25;;;;;;;16.83;12.30;;;;;;;8.02;88.37;97143.50;5029794;28;20191;-76
2024/01/31 06:45:51;;;;;;;18.80;12.73;;;;;;;8.12;87.44;97146.38;5014252;28;20780;-76
2024/01/31 06:48:16;;;;;;;18.83;13.47;;;;;;;8.04;88.27;97149.44;5031857;28;20197;-76
2024/01/31 06:50:41;;;;;;;19.60;13.10;;;;;;;8.04;88.58;97152.03;5031477;28;20667;-76
2024/01/31 06:53:07;;;;;;;19.17;14.40;;;;;;;8.06;88.74;97149.34;5028494;28;20713;-75
2024/01/31 06:55:32;;;;;;;19.43;14.33;;;;;;;8.08;88.40;97156.09;5023016;28;20214;-76
2024/01/31 06:57:57;;;;;;;21.23;16.50;;;;;;;8.00;89.07;97153.13;5011201;28;20699;-76
2024/01/31 07:00:23;;;;;;;24.57;16.17;;;;;;;8.03;88.90;97157.28;5045345;28;20179;-77
2024/01/31 07:02:48;;;;;;;28.67;20.27;;;;;;;8.01;89.44;97156.53;5014017;28;20186;-76
2024/01/31 07:05:14;;;;;;;31.63;21.73;;;;;;;7.96;89.34;97154.25;5012427;28;20312;-76
2024/01/31 07:07:40;;;;;;;27.50;19.67;;;;;;;7.82;90.49;97151.66;5014130;28;20185;-76
2024/01/31 07:10:06;;;;;;;42.53;31.53;;;;;;;7.85;90.58;97161.78;5025047;28;20199;-76
2024/01/31 07:12:31;;;;;;;31.47;23.90;;;;;;;7.83;90.73;97163.66;5013224;28;20699;-76
2024/01/31 07:14:57;;;;;;;34.40;25.53;;;;;;;7.79;91.03;97159.59;5030799;28;20687;-76
2024/01/31 07:17:22;;;;;;;31.43;24.03;;;;;;;7.72;91.74;97158.28;4996673;28;20652;-76
2024/01/31 07:19:48;;;;;;;26.90;20.53;;;;;;;7.77;91.68;97159.66;5030982;28;20265;-76
2024/01/31 07:22:13;;;;;;;28.97;22.73;;;;;;;7.84;90.79;97147.19;5029782;28;20214;-76
2024/01/31 07:24:39;;;;;;;40.07;27.17;;;;;;;7.84;90.82;97157.56;5029835;28;20580;-76
2024/01/31 07:27:04;;;;;;;36.07;24.23;;;;;;;7.84;91.14;97160.13;5008652;28;20179;-76
2024/01/31 07:29:30;;;;;;;37.37;24.47;;;;;;;7.84;91.06;97148.03;5008071;28;20190;-76
2024/01/31 07:31:55;;;;;;;33.33;25.77;;;;;;;7.81;91.30;97148.22;5012677;28;20199;-76
2024/01/31 07:34:20;;;;;;;35.80;24.67;;;;;;;7.86;90.99;97142.75;5012667;28;20187;-76
2024/01/31 07:36:46;;;;;;;33.60;22.67;;;;;;;7.85;90.98;97151.44;5021068;28;20247;-76
2024/01/31 07:39:11;;;;;;;32.50;23.10;;;;;;;7.89;91.16;97150.34;5028629;28;20228;-76
2024/01/31 07:41:36;;;;;;;35.87;23.83;;;;;;;7.85;91.13;97148.84;5000144;28;20242;-76
2024/01/31 07:44:03;;;;;;;35.87;23.37;;;;;;;7.87;91.11;97152.22;5029706;28;20561;-76
2024/01/31 07:46:29;;;;;;;36.73;25.00;;;;;;;7.86;91.20;97153.97;5012735;28;20274;-76
2024/01/31 07:48:55;;;;;;;35.33;24.77;;;;;;;7.91;91.27;97158.84;5029665;28;20183;-76
2024/01/31 07:51:20;;;;;;;35.07;25.03;;;;;;;7.81;91.52;97163.75;5012475;28;20206;-76
2024/01/31 07:53:45;;;;;;;34.63;24.07;;;;;;;7.81;91.88;97155.16;5009452;28;20194;-76
2024/01/31 07:56:11;;;;;;;35.83;24.73;;;;;;;7.89;91.50;97158.13;5000547;28;20588;-77
2024/01/31 07:58:37;;;;;;;35.30;26.90;;;;;;;7.89;91.75;97156.34;5013284;28;20197;-76
2024/01/31 08:01:02;;;;;;;43.23;37.80;;;;;;;7.88;91.67;97159.03;5027797;28;20290;-76
2024/01/31 08:03:27;;;;;;;35.77;27.47;;;;;;;7.91;91.33;97156.25;4995786;28;20187;-76
2024/01/31 08:05:53;;;;;;;32.60;26.53;;;;;;;7.83;91.52;97163.66;5029085;28;20274;-76
2024/01/31 08:08:18;;;;;;;38.50;29.03;;;;;;;7.85;91.66;97160.03;5012828;28;20335;-76
2024/01/31 08:10:44;;;;;;;55.53;48.17;;;;;;;7.90;91.50;97154.59;5005793;28;20234;-77
2024/01/31 08:13:09;;;;;;;41.27;34.00;;;;;;;7.86;91.42;97159.13;5031091;28;20731;-76
2024/01/31 08:15:35;;;;;;;36.50;26.03;;;;;;;7.89;91.35;97165.88;5027551;28;20644;-76
2024/01/31 08:18:01;;;;;;;35.13;24.77;;;;;;;7.91;91.35;97162.25;5029173;28;20870;-76
2024/01/31 08:20:26;;;;;;;37.43;25.27;;;;;;;7.88;91.07;97162.47;5001401;28;20246;-76
2024/01/31 08:22:52;;;;;;;38.03;24.47;;;;;;;7.93;91.29;97157.00;5038264;28;20186;-76
2024/01/31 08:25:17;;;;;;;33.37;24.87;;;;;;;7.87;91.24;97158.22;5038655;28;20190;-77
2024/01/31 08:27:42;;;;;;;35.13;24.77;;;;;;;7.94;91.19;97156.06;5030643;28;20190;-76
2024/01/31 08:30:08;;;;;;;35.50;26.53;;;;;;;8.01;91.14;97147.03;5030220;28;20600;-76
2024/01/31 08:32:34;;;;;;;36.17;27.20;;;;;;;8.04;90.68;97152.03;5012812;28;20206;-76
2024/01/31 08:35:01;;;;;;;39.73;27.70;;;;;;;7.96;91.30;97154.25;5004944;28;20373;-77
2024/01/31 08:37:26;;;;;;;42.30;28.40;;;;;;;8.05;91.05;97155.44;4997866;28;20189;-76
2024/01/31 08:39:52;;;;;;;41.57;27.17;;;;;;;8.09;90.52;97149.16;5009937;28;20191;-77
2024/01/31 08:42:17;;;;;;;43.33;28.00;;;;;;;8.12;90.45;97148.94;5028875;28;20232;-77
2024/01/31 08:44:43;;;;;;;44.70;27.83;;;;;;;8.12;90.98;97149.78;4997871;28;20591;-77
2024/01/31 08:47:08;;;;;;;40.37;27.60;;;;;;;8.17;90.63;97152.09;5028454;28;20260;-77
2024/01/31 08:49:33;;;;;;;39.67;26.97;;;;;;;8.14;91.08;97155.72;5027893;28;20221;-77
2024/01/31 08:51:59;;;;;;;43.27;27.43;;;;;;;8.24;90.38;97151.63;5003455;28;20591;-76
2024/01/31 08:54:25;;;;;;;35.57;26.03;;;;;;;8.37;90.14;97148.31;5010611;28;20183;-77
2024/01/31 08:56:50;;;;;;;38.70;27.20;;;;;;;8.35;89.85;97156.19;5026623;28;20210;-77
2024/01/31 08:59:17;;;;;;;33.37;24.23;;;;;;;8.45;89.89;97148.66;5028325;28;20186;-77
2024/01/31 09:01:48;;;;;;;31.93;24.10;;;;;;;8.39;89.39;97149.91;5011892;28;20201;-77
2024/01/31 09:04:13;;;;;;;33.13;23.30;;;;;;;8.49;89.43;97152.75;4991308;28;20194;-76
2024/01/31 09:06:41;;;;;;;33.13;24.40;;;;;;;8.50;89.04;97159.59;5028859;28;20252;-77
2024/01/31 09:09:06;;;;;;;30.57;23.17;;;;;;;8.49;88.73;97155.34;5007613;28;20220;-78
2024/01/31 09:11:32;;;;;;;41.70;26.87;;;;;;;8.57;88.88;97153.09;4995248;28;20198;-76
2024/01/31 09:13:57;;;;;;;44.63;33.00;;;;;;;8.58;88.68;97154.75;5007510;28;20193;-77
2024/01/31 09:16:23;;;;;;;36.47;27.50;;;;;;;8.61;88.02;97151.97;5011511;28;20633;-76
2024/01/31 09:18:49;;;;;;;35.03;26.70;;;;;;;8.56;88.38;97151.41;5005391;28;20261;-77
2024/01/31 09:21:22;;;;;;;37.53;27.03;;;;;;;8.62;88.35;97145.88;5026999;28;20210;-76
2024/01/31 09:23:47;;;;;;;31.23;23.90;;;;;;;8.56;88.32;97148.81;5028514;28;20186;-76
2024/01/31 09:26:13;;;;;;;32.37;23.50;;;;;;;8.75;88.47;97151.13;5002343;28;20206;-76
2024/01/31 09:28:39;;;;;;;43.57;37.57;;;;;;;8.77;87.89;97144.91;5029039;28;20576;-76
2024/01/31 09:31:04;;;;;;;35.57;28.57;;;;;;;8.87;87.55;97146.91;5010522;28;20235;-77
2024/01/31 09:33:30;;;;;;;31.13;25.83;;;;;;;8.74;86.70;97145.06;5029116;28;20194;-76
2024/01/31 09:35:55;;;;;;;31.20;23.17;;;;;;;8.92;86.91;97148.28;5029334;28;20215;-76
2024/01/31 09:38:21;;;;;;;27.17;20.80;;;;;;;8.47;87.27;97147.63;5014655;28;20202;-76
2024/01/31 09:40:46;;;;;;;35.30;23.03;;;;;;;8.77;87.38;97150.09;5013997;28;20210;-76
2024/01/31 09:43:12;;;;;;;30.97;22.00;;;;;;;8.83;86.98;97142.81;5014612;28;20186;-77
2024/01/31 09:45:38;;;;;;;25.57;20.37;;;;;;;8.94;86.59;97140.41;5015055;28;21314;-77
2024/01/31 09:48:04;;;;;;;30.43;22.40;;;;;;;9.07;86.14;97143.84;5017769;28;20330;-77
2024/01/31 09:50:30;;;;;;;29.00;21.80;;;;;;;9.12;86.17;97139.22;5013593;28;20680;-77
2024/01/31 09:52:57;;;;;;;30.33;22.70;;;;;;;9.30;85.80;97152.72;5012589;28;20183;-77
2024/01/31 09:55:25;;;;;;;27.30;19.83;;;;;;;9.32;85.60;97150.88;5002240;28;20226;-76
2024/01/31 09:57:50;;;;;;;31.53;20.33;;;;;;;9.17;85.19;97157.03;4998010;28;20187;-77
2024/01/31 10:00:17;;;;;;;26.57;19.87;;;;;;;9.24;84.34;97147.94;4995145;28;20187;-77
2024/01/31 10:02:44;;;;;;;28.03;20.40;;;;;;;9.40;84.98;97147.78;5012992;28;20217;-77
2024/01/31 10:05:09;;;;;;;28.70;22.70;;;;;;;9.56;84.34;97151.00;5011232;28;20178;-77
2024/01/31 10:07:38;;;;;;;29.20;23.70;;;;;;;9.52;83.45;97139.16;5005381;28;20175;-77
2024/01/31 10:10:04;;;;;;;37.17;26.07;;;;;;;9.62;83.60;97140.22;5014433;28;20190;-78
2024/01/31 10:12:29;;;;;;;35.27;24.87;;;;;;;9.59;83.19;97141.25;5000198;28;20202;-77
2024/01/31 10:14:55;;;;;;;34.77;24.23;;;;;;;9.44;82.82;97141.44;5014624;28;20664;-77
2024/01/31 10:17:21;;;;;;;33.50;24.00;;;;;;;9.26;83.90;97139.13;5032663;28;20275;-76
2024/01/31 10:19:48;;;;;;;30.70;24.13;;;;;;;9.46;83.75;97134.41;5007636;28;20183;-77
2024/01/31 10:22:13;;;;;;;31.30;23.27;;;;;;;9.07;85.26;97130.91;5031551;28;20210;-77
2024/01/31 10:24:39;;;;;;;29.07;22.60;;;;;;;9.57;83.09;97129.34;5029212;28;20596;-77
2024/01/31 10:27:06;;;;;;;29.30;21.67;;;;;;;9.17;83.65;97120.75;5012209;28;20277;-77
2024/01/31 10:29:32;;;;;;;30.13;21.37;;;;;;;9.69;83.47;97118.13;5008468;28;20853;-77
2024/01/31 10:31:57;;;;;;;30.77;22.37;;;;;;;9.70;81.80;97124.97;5014462;28;20216;-77
2024/01/31 10:34:23;;;;;;;28.80;20.13;;;;;;;9.75;80.52;97122.06;5014621;28;20608;-77
2024/01/31 10:36:49;;;;;;;24.93;19.80;;;;;;;9.76;81.62;97124.56;5008994;28;20225;-77
2024/01/31 10:39:16;;;;;;;27.23;19.60;;;;;;;9.82;81.47;97111.19;5014267;28;20225;-76
2024/01/31 10:41:42;;;;;;;27.33;20.27;;;;;;;9.95;81.33;97108.56;5014145;28;20199;-77
2024/01/31 10:44:10;;;;;;;24.30;19.50;;;;;;;10.13;80.07;97111.66;5021752;28;20179;-77
2024/01/31 10:46:36;;;;;;;29.70;19.37;;;;;;;10.20;79.68;97111.13;5032222;28;20709;-77
2024/01/31 10:49:01;;;;;;;23.90;19.93;;;;;;;10.21;78.74;97119.72;5013629;28;20201;-77
2024/01/31 10:51:27;;;;;;;25.40;19.63;;;;;;;10.40;78.94;97111.50;4997947;28;20584;-78
2024/01/31 10:53:55;;;;;;;27.77;20.73;;;;;;;10.11;78.65;97103.13;5032009;28;20174;-77
2024/01/31 10:56:21;;;;;;;29.73;20.07;;;;;;;10.09;78.18;97105.03;4999378;28;20195;-77
2024/01/31 10:58:46;;;;;;;29.30;21.90;;;;;;;9.82;79.27;97092.19;5004581;28;20629;-75
2024/01/31 11:01:14;;;;;;;28.33;19.33;;;;;;;9.90;79.60;97095.91;5031306;28;20281;-76
2024/01/31 11:03:44;;;;;;;23.70;18.00;;;;;;;9.96;78.95;97091.22;5031318;28;20179;-76
2024/01/31 11:06:10;;;;;;;28.40;20.27;;;;;;;10.00;78.43;97084.91;5012262;28;20251;-76
2024/01/31 11:08:39;;;;;;;26.10;19.50;;;;;;;10.05;77.70;97088.81;5002104;28;20195;-76
2024/01/31 11:11:11;;;;;;;24.77;18.87;;;;;;;10.20;77.45;97081.72;5030346;28;20217;-76
2024/01/31 11:13:36;;;;;;;35.90;19.43;;;;;;;10.03;78.35;97082.09;4997752;28;20193;-76
2024/01/31 11:16:04;;;;;;;20.90;17.07;;;;;;;9.77;79.00;97082.09;5014274;28;20210;-76
2024/01/31 11:18:29;;;;;;;27.03;18.20;;;;;;;10.23;78.26;97076.34;5016861;28;20187;-76
2024/01/31 11:20:55;;;;;;;25.17;18.40;;;;;;;10.26;76.79;97070.13;5013683;28;20211;-76
2024/01/31 11:23:23;;;;;;;24.00;17.67;;;;;;;9.95;78.75;97067.03;5031285;28;20220;-76
2024/01/31 11:25:50;;;;;;;23.80;17.20;;;;;;;9.98;78.25;97072.00;5013685;28;20179;-76